Archival Weather

Salzburg

Salzburg, Austria (LOWS)

Report from: Thursday, September 21, 2023 12:50 PM CEST
Current time: Sunday, July 14, 2024 12:02 PM CEST

Current weather – Weather history – Daily summaries
Weather forecast

Temperature26.0°C (78.8°F)
Dew point14.0°C (57.2°F)
Winds 3 kts (1.5 m/s, 3.5 mph) Vrb
Winds variableWinds variable
Visibility6.2 mi. (10 km)
Clouds Few clouds 6,000 ft. (1,829 m)
Altimeter29.65 in.Hg (1004 mB)
Relative humidity48 %
Density altitude1,805 ft. (550 m)
Remarks No significant changes expected in the next two hours
Flight conditions Visual Meteorological Conditions
Raw dataLOWS 211050Z VRB03KT 9999 FEW060 26/14 Q1004 NOSIG
An error has occurred. This application may no longer respond until reloaded. Reload 🗙